sensor_id;sensor_type;location;lat;lon;timestamp;pressure;altitude;pressure_sealevel;temperature;humidity
67818;BME280;54614;47.576;7.524;2023-04-08T00:00:49;98799.09;;;23.93;32.06
67818;BME280;54614;47.576;7.524;2023-04-08T00:03:15;98797.66;;;23.97;32.17
67818;BME280;54614;47.576;7.524;2023-04-08T00:05:41;98800.13;;;23.92;32.25
67818;BME280;54614;47.576;7.524;2023-04-08T00:08:07;98791.44;;;23.90;32.50
67818;BME280;54614;47.576;7.524;2023-04-08T00:10:33;98794.13;;;23.90;32.50
67818;BME280;54614;47.576;7.524;2023-04-08T00:12:58;98795.78;;;23.91;32.21
67818;BME280;54614;47.576;7.524;2023-04-08T00:15:25;98794.34;;;23.88;32.14
67818;BME280;54614;47.576;7.524;2023-04-08T00:17:51;98789.56;;;23.84;32.32
67818;BME280;54614;47.576;7.524;2023-04-08T00:20:21;98793.09;;;23.84;32.56
67818;BME280;54614;47.576;7.524;2023-04-08T00:22:47;98793.50;;;23.88;32.25
67818;BME280;54614;47.576;7.524;2023-04-08T00:25:12;98791.22;;;23.85;32.61
67818;BME280;54614;47.576;7.524;2023-04-08T00:27:38;98791.44;;;23.83;32.41
67818;BME280;54614;47.576;7.524;2023-04-08T00:30:05;98790.19;;;23.86;32.35
67818;BME280;54614;47.576;7.524;2023-04-08T00:32:31;98795.34;;;23.81;32.59
67818;BME280;54614;47.576;7.524;2023-04-08T00:34:57;98786.88;;;23.84;32.41
67818;BME280;54614;47.576;7.524;2023-04-08T00:37:23;98794.94;;;23.84;32.32
67818;BME280;54614;47.576;7.524;2023-04-08T00:39:50;98794.13;;;23.83;32.26
67818;BME280;54614;47.576;7.524;2023-04-08T00:42:19;98791.84;;;23.80;32.29
67818;BME280;54614;47.576;7.524;2023-04-08T00:44:46;98786.25;;;23.82;32.37
67818;BME280;54614;47.576;7.524;2023-04-08T00:47:14;98789.97;;;23.81;32.30
67818;BME280;54614;47.576;7.524;2023-04-08T00:49:42;98796.97;;;23.75;32.37
67818;BME280;54614;47.576;7.524;2023-04-08T00:52:07;98796.16;;;23.74;32.56
67818;BME280;54614;47.576;7.524;2023-04-08T00:54:36;98800.50;;;23.75;32.68
67818;BME280;54614;47.576;7.524;2023-04-08T00:57:04;98806.69;;;23.76;32.55
67818;BME280;54614;47.576;7.524;2023-04-08T00:59:31;98801.53;;;23.74;32.39
67818;BME280;54614;47.576;7.524;2023-04-08T01:02:14;98804.00;;;23.76;32.22
67818;BME280;54614;47.576;7.524;2023-04-08T01:05:01;98799.47;;;23.76;32.22
67818;BME280;54614;47.576;7.524;2023-04-08T01:07:33;98801.53;;;23.74;32.17
67818;BME280;54614;47.576;7.524;2023-04-08T01:10:19;98805.25;;;23.73;32.26
67818;BME280;54614;47.576;7.524;2023-04-08T01:13:00;98801.72;;;23.73;32.35
67818;BME280;54614;47.576;7.524;2023-04-08T01:15:29;98808.31;;;23.70;32.38
67818;BME280;54614;47.576;7.524;2023-04-08T01:17:57;98799.88;;;23.73;32.20
67818;BME280;54614;47.576;7.524;2023-04-08T01:20:25;98801.72;;;23.73;32.48
67818;BME280;54614;47.576;7.524;2023-04-08T01:23:02;98802.34;;;23.75;32.46
67818;BME280;54614;47.576;7.524;2023-04-08T01:25:36;98807.28;;;23.71;32.36
67818;BME280;54614;47.576;7.524;2023-04-08T01:28:08;98806.47;;;23.71;32.21
67818;BME280;54614;47.576;7.524;2023-04-08T01:30:38;98803.78;;;23.71;32.09
67818;BME280;54614;47.576;7.524;2023-04-08T01:33:06;98798.59;;;23.69;32.43
67818;BME280;54614;47.576;7.524;2023-04-08T01:35:32;98794.47;;;23.67;32.24
67818;BME280;54614;47.576;7.524;2023-04-08T01:38:00;98797.34;;;23.65;32.29
67818;BME280;54614;47.576;7.524;2023-04-08T01:40:27;98800.47;;;23.69;32.37
67818;BME280;54614;47.576;7.524;2023-04-08T01:42:55;98795.09;;;23.69;32.28
67818;BME280;54614;47.576;7.524;2023-04-08T01:45:23;98794.28;;;23.68;32.09
67818;BME280;54614;47.576;7.524;2023-04-08T01:47:51;98795.28;;;23.67;32.41
67818;BME280;54614;47.576;7.524;2023-04-08T01:50:18;98803.75;;;23.64;32.47
67818;BME280;54614;47.576;7.524;2023-04-08T01:52:48;98799.41;;;23.63;32.38
67818;BME280;54614;47.576;7.524;2023-04-08T01:55:15;98804.16;;;23.61;32.33
67818;BME280;54614;47.576;7.524;2023-04-08T01:57:47;98804.78;;;23.63;32.13
67818;BME280;54614;47.576;7.524;2023-04-08T02:00:18;98811.81;;;23.64;32.42
67818;BME280;54614;47.576;7.524;2023-04-08T02:02:47;98806.84;;;23.61;32.45
67818;BME280;54614;47.576;7.524;2023-04-08T02:05:14;98805.63;;;23.64;32.11
67818;BME280;54614;47.576;7.524;2023-04-08T02:07:40;98804.78;;;23.63;32.10
67818;BME280;54614;47.576;7.524;2023-04-08T02:10:06;98806.63;;;23.63;32.39
67818;BME280;54614;47.576;7.524;2023-04-08T02:12:33;98808.09;;;23.65;31.94
67818;BME280;54614;47.576;7.524;2023-04-08T02:15:00;98812.84;;;23.63;32.40
67818;BME280;54614;47.576;7.524;2023-04-08T02:17:35;98814.91;;;23.61;32.35
67818;BME280;54614;47.576;7.524;2023-04-08T02:20:22;98816.75;;;23.61;32.13
67818;BME280;54614;47.576;7.524;2023-04-08T02:23:08;98818.59;;;23.60;32.27
67818;BME280;54614;47.576;7.524;2023-04-08T02:25:39;98811.56;;;23.59;32.36
67818;BME280;54614;47.576;7.524;2023-04-08T02:28:10;98811.16;;;23.56;32.31
67818;BME280;54614;47.576;7.524;2023-04-08T02:30:41;98817.34;;;23.56;32.37
67818;BME280;54614;47.576;7.524;2023-04-08T02:33:07;98822.72;;;23.56;32.01
67818;BME280;54614;47.576;7.524;2023-04-08T02:35:35;98814.03;;;23.54;32.26
67818;BME280;54614;47.576;7.524;2023-04-08T02:38:01;98811.16;;;23.56;32.25
67818;BME280;54614;47.576;7.524;2023-04-08T02:40:32;98817.97;;;23.58;31.98
67818;BME280;54614;47.576;7.524;2023-04-08T02:43:00;98818.59;;;23.60;32.34
67818;BME280;54614;47.576;7.524;2023-04-08T02:45:30;98817.97;;;23.58;32.05
67818;BME280;54614;47.576;7.524;2023-04-08T02:47:58;98822.91;;;23.55;31.96
67818;BME280;54614;47.576;7.524;2023-04-08T02:50:25;98815.03;;;23.53;32.26
67818;BME280;54614;47.576;7.524;2023-04-08T02:52:50;98815.69;;;23.55;32.11
67818;BME280;54614;47.576;7.524;2023-04-08T02:55:16;98815.03;;;23.53;32.21
67818;BME280;54614;47.576;7.524;2023-04-08T02:57:42;98820.59;;;23.52;32.24
67818;BME280;54614;47.576;7.524;2023-04-08T03:00:09;98821.06;;;23.55;31.77
67818;BME280;54614;47.576;7.524;2023-04-08T03:02:35;98815.84;;;23.54;32.17
67818;BME280;54614;47.576;7.524;2023-04-08T03:05:01;98822.09;;;23.54;32.20
67818;BME280;54614;47.576;7.524;2023-04-08T03:07:28;98822.09;;;23.54;32.17
67818;BME280;54614;47.576;7.524;2023-04-08T03:09:54;98808.47;;;23.56;32.03
67818;BME280;54614;47.576;7.524;2023-04-08T03:12:21;98820.41;;;23.53;32.31
67818;BME280;54614;47.576;7.524;2023-04-08T03:14:47;98812.13;;;23.48;32.00
67818;BME280;54614;47.576;7.524;2023-04-08T03:17:13;98820.16;;;23.48;32.13
67818;BME280;54614;47.576;7.524;2023-04-08T03:19:40;98825.78;;;23.53;32.27
67818;BME280;54614;47.576;7.524;2023-04-08T03:22:06;98819.56;;;23.53;32.30
67818;BME280;54614;47.576;7.524;2023-04-08T03:24:31;98818.75;;;23.52;32.19
67818;BME280;54614;47.576;7.524;2023-04-08T03:26:57;98815.00;;;23.46;32.08
67818;BME280;54614;47.576;7.524;2023-04-08T03:29:23;98819.78;;;23.51;32.18
67818;BME280;54614;47.576;7.524;2023-04-08T03:31:49;98816.25;;;23.51;32.13
67818;BME280;54614;47.576;7.524;2023-04-08T03:34:14;98820.16;;;23.48;32.13
67818;BME280;54614;47.576;7.524;2023-04-08T03:36:40;98823.69;;;23.48;31.91
67818;BME280;54614;47.576;7.524;2023-04-08T03:39:06;98827.41;;;23.47;32.17
67818;BME280;54614;47.576;7.524;2023-04-08T03:41:32;98817.88;;;23.45;31.82
67818;BME280;54614;47.576;7.524;2023-04-08T03:43:58;98824.91;;;23.46;32.28
67818;BME280;54614;47.576;7.524;2023-04-08T03:46:24;98823.69;;;23.48;32.14
67818;BME280;54614;47.576;7.524;2023-04-08T03:48:49;98826.38;;;23.48;32.01
67818;BME280;54614;47.576;7.524;2023-04-08T03:51:15;98831.09;;;23.46;32.04
67818;BME280;54614;47.576;7.524;2023-04-08T03:53:41;98826.75;;;23.45;32.16
67818;BME280;54614;47.576;7.524;2023-04-08T03:56:07;98826.97;;;23.44;32.18
67818;BME280;54614;47.576;7.524;2023-04-08T03:58:33;98827.78;;;23.44;32.01
67818;BME280;54614;47.576;7.524;2023-04-08T04:00:58;98828.19;;;23.41;32.17
67818;BME280;54614;47.576;7.524;2023-04-08T04:03:25;98829.84;;;23.42;31.89
67818;BME280;54614;47.576;7.524;2023-04-08T04:05:50;98822.63;;;23.43;32.11
67818;BME280;54614;47.576;7.524;2023-04-08T04:08:16;98829.84;;;23.42;32.07
67818;BME280;54614;47.576;7.524;2023-04-08T04:10:42;98834.34;;;23.35;32.40
67818;BME280;54614;47.576;7.524;2023-04-08T04:13:08;98840.09;;;23.32;32.67
67818;BME280;54614;47.576;7.524;2023-04-08T04:15:38;98844.25;;;23.35;32.45
67818;BME280;54614;47.576;7.524;2023-04-08T04:18:05;98836.59;;;23.32;32.60
67818;BME280;54614;47.576;7.524;2023-04-08T04:20:31;98843.38;;;23.28;32.44
67818;BME280;54614;47.576;7.524;2023-04-08T04:22:57;98842.34;;;23.29;32.49
67818;BME280;54614;47.576;7.524;2023-04-08T04:25:23;98841.94;;;23.25;32.63
67818;BME280;54614;47.576;7.524;2023-04-08T04:27:49;98849.63;;;23.35;32.67
67818;BME280;54614;47.576;7.524;2023-04-08T04:30:16;98844.69;;;23.38;32.46
67818;BME280;54614;47.576;7.524;2023-04-08T04:32:44;98841.56;;;23.35;32.26
67818;BME280;54614;47.576;7.524;2023-04-08T04:35:10;98846.34;;;23.39;32.33
67818;BME280;54614;47.576;7.524;2023-04-08T04:37:36;98841.81;;;23.40;32.01
67818;BME280;54614;47.576;7.524;2023-04-08T04:40:05;98851.03;;;23.31;32.22
67818;BME280;54614;47.576;7.524;2023-04-08T04:42:32;98838.44;;;23.31;32.32
67818;BME280;54614;47.576;7.524;2023-04-08T04:44:58;98841.72;;;23.27;32.54
67818;BME280;54614;47.576;7.524;2023-04-08T04:47:24;98844.22;;;23.28;32.75
67818;BME280;54614;47.576;7.524;2023-04-08T04:49:50;98842.56;;;23.27;32.65
67818;BME280;54614;47.576;7.524;2023-04-08T04:52:16;98851.81;;;23.25;32.87
67818;BME280;54614;47.576;7.524;2023-04-08T04:54:42;98848.31;;;23.24;32.61
67818;BME280;54614;47.576;7.524;2023-04-08T04:57:08;98853.06;;;23.22;32.87
67818;BME280;54614;47.576;7.524;2023-04-08T04:59:36;98861.34;;;23.27;32.62
67818;BME280;54614;47.576;7.524;2023-04-08T05:02:02;98853.34;;;23.34;32.40
67818;BME280;54614;47.576;7.524;2023-04-08T05:04:28;98859.06;;;23.24;32.70
67818;BME280;54614;47.576;7.524;2023-04-08T05:06:54;98874.72;;;23.21;32.70
67818;BME280;54614;47.576;7.524;2023-04-08T05:09:19;98868.03;;;23.38;32.32
67818;BME280;54614;47.576;7.524;2023-04-08T05:11:45;98868.47;;;23.41;32.40
67818;BME280;54614;47.576;7.524;2023-04-08T05:14:11;98871.94;;;23.35;32.58
67818;BME280;54614;47.576;7.524;2023-04-08T05:16:37;98873.75;;;23.28;32.74
67818;BME280;54614;47.576;7.524;2023-04-08T05:19:03;98871.06;;;23.28;32.74
67818;BME280;54614;47.576;7.524;2023-04-08T05:21:29;98882.19;;;23.25;32.64
67818;BME280;54614;47.576;7.524;2023-04-08T05:23:57;98876.81;;;23.25;32.86
67818;BME280;54614;47.576;7.524;2023-04-08T05:26:23;98880.91;;;23.21;33.08
67818;BME280;54614;47.576;7.524;2023-04-08T05:28:49;98887.09;;;23.22;32.81
67818;BME280;54614;47.576;7.524;2023-04-08T05:31:19;98879.69;;;23.24;32.88
67818;BME280;54614;47.576;7.524;2023-04-08T05:33:45;98880.75;;;23.29;32.58
67818;BME280;54614;47.576;7.524;2023-04-08T05:36:12;98887.75;;;23.24;32.51
67818;BME280;54614;47.576;7.524;2023-04-08T05:38:39;98880.19;;;23.34;32.28
67818;BME280;54614;47.576;7.524;2023-04-08T05:41:07;98881.44;;;23.38;32.36
67818;BME280;54614;47.576;7.524;2023-04-08T05:43:33;98883.25;;;23.31;32.70
67818;BME280;54614;47.576;7.524;2023-04-08T05:45:59;98883.09;;;23.39;32.73
67818;BME280;54614;47.576;7.524;2023-04-08T05:48:25;98885.97;;;23.37;32.87
67818;BME280;54614;47.576;7.524;2023-04-08T05:50:51;98892.53;;;23.28;32.81
67818;BME280;54614;47.576;7.524;2023-04-08T05:53:17;98894.56;;;23.26;32.96
67818;BME280;54614;47.576;7.524;2023-04-08T05:55:42;98899.94;;;23.26;32.93
67818;BME280;54614;47.576;7.524;2023-04-08T05:58:08;98900.19;;;23.31;33.09
67818;BME280;54614;47.576;7.524;2023-04-08T06:00:34;98900.88;;;23.40;32.88
67818;BME280;54614;47.576;7.524;2023-04-08T06:03:00;98896.53;;;23.39;32.75
67818;BME280;54614;47.576;7.524;2023-04-08T06:05:26;98906.66;;;23.43;32.60
67818;BME280;54614;47.576;7.524;2023-04-08T06:07:51;98902.31;;;23.42;32.32
67818;BME280;54614;47.576;7.524;2023-04-08T06:10:17;98907.91;;;23.41;32.44
67818;BME280;54614;47.576;7.524;2023-04-08T06:12:43;98920.09;;;23.43;32.43
67818;BME280;54614;47.576;7.524;2023-04-08T06:15:09;98915.94;;;23.41;32.59
67818;BME280;54614;47.576;7.524;2023-04-08T06:17:36;98915.31;;;23.39;32.49
67818;BME280;54614;47.576;7.524;2023-04-08T06:20:04;98919.03;;;23.38;32.31
67818;BME280;54614;47.576;7.524;2023-04-08T06:22:30;98919.03;;;23.38;32.50
67818;BME280;54614;47.576;7.524;2023-04-08T06:24:56;98925.84;;;23.40;32.27
67818;BME280;54614;47.576;7.524;2023-04-08T06:27:22;98912.97;;;23.29;32.72
67818;BME280;54614;47.576;7.524;2023-04-08T06:29:48;98916.94;;;23.33;32.53
67818;BME280;54614;47.576;7.524;2023-04-08T06:32:13;98909.94;;;23.39;32.44
67818;BME280;54614;47.576;7.524;2023-04-08T06:34:40;98920.50;;;23.40;32.36
67818;BME280;54614;47.576;7.524;2023-04-08T06:37:06;98920.88;;;23.37;32.20
67818;BME280;54614;47.576;7.524;2023-04-08T06:39:32;98916.16;;;23.39;32.37
67818;BME280;54614;47.576;7.524;2023-04-08T06:41:58;98915.31;;;23.39;32.33
67818;BME280;54614;47.576;7.524;2023-04-08T06:44:24;98917.81;;;23.40;32.29
67818;BME280;54614;47.576;7.524;2023-04-08T06:46:50;98924.00;;;23.41;32.31
67818;BME280;54614;47.576;7.524;2023-04-08T06:49:16;98918.78;;;23.33;32.40
67818;BME280;54614;47.576;7.524;2023-04-08T06:51:42;98916.53;;;23.36;32.66
67818;BME280;54614;47.576;7.524;2023-04-08T06:54:08;98917.38;;;23.37;32.40
67818;BME280;54614;47.576;7.524;2023-04-08T06:56:35;98923.56;;;23.37;32.61
67818;BME280;54614;47.576;7.524;2023-04-08T06:59:02;98923.13;;;23.34;32.54
67818;BME280;54614;47.576;7.524;2023-04-08T07:01:29;98927.47;;;23.35;32.33
67818;BME280;54614;47.576;7.524;2023-04-08T07:03:56;98925.03;;;23.40;32.33
67818;BME280;54614;47.576;7.524;2023-04-08T07:06:23;98928.72;;;23.39;32.18
67818;BME280;54614;47.576;7.524;2023-04-08T07:08:48;98930.78;;;23.37;32.55
67818;BME280;54614;47.576;7.524;2023-04-08T07:11:15;98926.63;;;23.34;32.35
67818;BME280;54614;47.576;7.524;2023-04-08T07:13:41;98928.09;;;23.37;32.62
67818;BME280;54614;47.576;7.524;2023-04-08T07:16:07;98926.09;;;23.45;32.28
67818;BME280;54614;47.576;7.524;2023-04-08T07:18:33;98932.34;;;23.53;32.68
67818;BME280;54614;47.576;7.524;2023-04-08T07:20:58;98934.88;;;23.54;32.79
67818;BME280;54614;47.576;7.524;2023-04-08T07:23:25;98939.00;;;23.57;33.06
67818;BME280;54614;47.576;7.524;2023-04-08T07:25:52;98936.56;;;23.62;33.00
67818;BME280;54614;47.576;7.524;2023-04-08T07:28:19;98941.69;;;23.57;32.99
67818;BME280;54614;47.576;7.524;2023-04-08T07:30:46;98937.53;;;23.26;37.27
67818;BME280;54614;47.576;7.524;2023-04-08T07:33:12;98941.75;;;23.14;36.89
67818;BME280;54614;47.576;7.524;2023-04-08T07:35:37;98945.75;;;23.25;36.26
67818;BME280;54614;47.576;7.524;2023-04-08T07:38:04;98947.91;;;23.36;35.51
67818;BME280;54614;47.576;7.524;2023-04-08T07:40:33;98937.03;;;23.44;34.06
67818;BME280;54614;47.576;7.524;2023-04-08T07:42:59;98939.75;;;23.51;33.47
67818;BME280;54614;47.576;7.524;2023-04-08T07:45:25;98946.47;;;23.61;33.27
67818;BME280;54614;47.576;7.524;2023-04-08T07:47:51;98940.72;;;23.64;33.02
67818;BME280;54614;47.576;7.524;2023-04-08T07:50:17;98939.06;;;23.63;33.36
67818;BME280;54614;47.576;7.524;2023-04-08T07:52:42;98944.84;;;23.67;33.21
67818;BME280;54614;47.576;7.524;2023-04-08T07:55:08;98944.47;;;23.70;33.04
67818;BME280;54614;47.576;7.524;2023-04-08T07:57:34;98953.56;;;23.69;33.31
67818;BME280;54614;47.576;7.524;2023-04-08T08:00:00;98944.03;;;23.66;33.02
67818;BME280;54614;47.576;7.524;2023-04-08T08:02:26;98948.81;;;23.71;32.92
67818;BME280;54614;47.576;7.524;2023-04-08T08:04:52;98954.41;;;23.76;32.88
67818;BME280;54614;47.576;7.524;2023-04-08T08:07:18;98951.94;;;23.74;32.94
67818;BME280;54614;47.576;7.524;2023-04-08T08:09:43;98950.94;;;23.82;32.78
67818;BME280;54614;47.576;7.524;2023-04-08T08:12:09;98947.44;;;23.82;32.61
67818;BME280;54614;47.576;7.524;2023-04-08T08:14:37;98949.09;;;23.83;32.46
67818;BME280;54614;47.576;7.524;2023-04-08T08:17:03;98947.44;;;23.82;32.72
67818;BME280;54614;47.576;7.524;2023-04-08T08:19:29;98949.28;;;23.81;32.56
67818;BME280;54614;47.576;7.524;2023-04-08T08:21:55;98955.50;;;23.82;32.51
67818;BME280;54614;47.576;7.524;2023-04-08T08:24:21;98959.63;;;23.84;32.58
67818;BME280;54614;47.576;7.524;2023-04-08T08:26:47;98949.91;;;23.83;32.80
67818;BME280;54614;47.576;7.524;2023-04-08T08:29:13;98953.03;;;23.87;32.35
67818;BME280;54614;47.576;7.524;2023-04-08T08:31:39;98958.41;;;23.87;32.50
67818;BME280;54614;47.576;7.524;2023-04-08T08:34:05;98966.88;;;23.84;32.75
67818;BME280;54614;47.576;7.524;2023-04-08T08:36:31;98964.38;;;23.82;32.66
67818;BME280;54614;47.576;7.524;2023-04-08T08:38:57;98977.63;;;23.84;32.49
67818;BME280;54614;47.576;7.524;2023-04-08T08:41:22;98971.84;;;23.87;32.48
67818;BME280;54614;47.576;7.524;2023-04-08T08:43:48;98967.69;;;23.84;32.72
67818;BME280;54614;47.576;7.524;2023-04-08T08:46:16;98975.31;;;23.81;32.84
67818;BME280;54614;47.576;7.524;2023-04-08T08:48:44;98965.66;;;23.86;32.68
67818;BME280;54614;47.576;7.524;2023-04-08T08:51:12;98973.31;;;23.89;32.42
67818;BME280;54614;47.576;7.524;2023-04-08T08:53:38;98966.06;;;23.90;32.35
67818;BME280;54614;47.576;7.524;2023-04-08T08:56:07;98973.09;;;23.91;32.60
67818;BME280;54614;47.576;7.524;2023-04-08T08:58:33;98967.53;;;23.92;32.87
67818;BME280;54614;47.576;7.524;2023-04-08T09:00:59;98977.66;;;23.90;32.83
67818;BME280;54614;47.576;7.524;2023-04-08T09:03:27;98970.22;;;23.92;32.44
67818;BME280;54614;47.576;7.524;2023-04-08T09:05:56;98974.56;;;23.93;32.48
67818;BME280;54614;47.576;7.524;2023-04-08T09:08:36;98966.72;;;23.92;32.84
67818;BME280;54614;47.576;7.524;2023-04-08T09:11:19;98975.41;;;23.94;32.51
67818;BME280;54614;47.576;7.524;2023-04-08T09:13:48;98975.59;;;23.92;32.87
67818;BME280;54614;47.576;7.524;2023-04-08T09:16:17;98980.97;;;23.92;32.78
67818;BME280;54614;47.576;7.524;2023-04-08T09:18:44;98976.63;;;23.91;32.77
67818;BME280;54614;47.576;7.524;2023-04-08T09:21:13;98979.13;;;23.93;32.45
67818;BME280;54614;47.576;7.524;2023-04-08T09:23:49;98977.06;;;23.95;32.72
67818;BME280;54614;47.576;7.524;2023-04-08T09:26:18;98984.09;;;23.96;32.75
67818;BME280;54614;47.576;7.524;2023-04-08T09:29:03;98979.75;;;23.95;32.68
67818;BME280;54614;47.576;7.524;2023-04-08T09:31:33;98979.97;;;24.00;32.60
67818;BME280;54614;47.576;7.524;2023-04-08T09:34:14;98977.69;;;23.97;32.65
67818;BME280;54614;47.576;7.524;2023-04-08T09:36:49;98977.50;;;23.98;32.46
67818;BME280;54614;47.576;7.524;2023-04-08T09:39:16;98979.75;;;23.95;32.62
67818;BME280;54614;47.576;7.524;2023-04-08T09:41:43;98970.84;;;23.94;32.80
67818;BME280;54614;47.576;7.524;2023-04-08T09:44:10;98972.13;;;23.98;32.29
67818;BME280;54614;47.576;7.524;2023-04-08T09:52:14;98974.97;;;23.90;32.61
67818;BME280;54614;47.576;7.524;2023-04-08T09:55:03;98980.56;;;23.95;32.45
67818;BME280;54614;47.576;7.524;2023-04-08T10:00:18;98981.38;;;23.89;32.62
67818;BME280;54614;47.576;7.524;2023-04-08T10:05:31;98983.25;;;23.95;32.87
67818;BME280;54614;47.576;7.524;2023-04-08T10:07:58;98983.66;;;23.92;32.78
67818;BME280;54614;47.576;7.524;2023-04-08T10:10:25;98985.31;;;23.93;32.44
67818;BME280;54614;47.576;7.524;2023-04-08T10:12:52;98983.22;;;23.89;32.91
67818;BME280;54614;47.576;7.524;2023-04-08T10:15:29;98983.47;;;23.94;32.54
67818;BME280;54614;47.576;7.524;2023-04-08T10:20:47;98986.50;;;23.84;33.06
67818;BME280;54614;47.576;7.524;2023-04-08T10:23:16;98989.81;;;23.86;32.99
67818;BME280;54614;47.576;7.524;2023-04-08T10:25:46;98987.97;;;23.87;32.96
67818;BME280;54614;47.576;7.524;2023-04-08T10:30:51;98982.16;;;23.83;33.24
67818;BME280;54614;47.576;7.524;2023-04-08T10:38:36;98971.44;;;23.90;33.18
67818;BME280;54614;47.576;7.524;2023-04-08T10:41:02;98971.84;;;23.87;33.11
67818;BME280;54614;47.576;7.524;2023-04-08T10:43:35;98972.09;;;23.92;32.96
67818;BME280;54614;47.576;7.524;2023-04-08T10:46:02;98972.47;;;23.89;33.09
67818;BME280;54614;47.576;7.524;2023-04-08T10:48:29;98971.00;;;23.86;32.96
67818;BME280;54614;47.576;7.524;2023-04-08T10:50:58;98967.94;;;23.89;33.27
67818;BME280;54614;47.576;7.524;2023-04-08T10:53:38;98966.91;;;23.90;33.14
67818;BME280;54614;47.576;7.524;2023-04-08T10:56:11;98963.59;;;23.88;32.96
67818;BME280;54614;47.576;7.524;2023-04-08T10:58:53;98966.50;;;23.93;33.20
67818;BME280;54614;47.576;7.524;2023-04-08T11:01:24;98970.41;;;23.91;33.21
67818;BME280;54614;47.576;7.524;2023-04-08T11:03:50;98965.69;;;23.93;33.08
67818;BME280;54614;47.576;7.524;2023-04-08T11:06:16;98970.22;;;23.92;33.11
67818;BME280;54614;47.576;7.524;2023-04-08T11:08:42;98964.44;;;23.95;33.01
67818;BME280;54614;47.576;7.524;2023-04-08T11:11:12;98966.13;;;23.96;33.07
67818;BME280;54614;47.576;7.524;2023-04-08T11:13:44;98966.06;;;23.90;33.15
67818;BME280;54614;47.576;7.524;2023-04-08T11:16:11;98959.03;;;23.89;32.96
67818;BME280;54614;47.576;7.524;2023-04-08T11:18:38;98971.00;;;23.86;33.24
67818;BME280;54614;47.576;7.524;2023-04-08T11:21:10;98962.75;;;23.88;33.23
67818;BME280;54614;47.576;7.524;2023-04-08T11:23:36;98960.69;;;23.90;33.40
67818;BME280;54614;47.576;7.524;2023-04-08T11:26:03;98960.50;;;23.91;33.12
67818;BME280;54614;47.576;7.524;2023-04-08T11:28:29;98959.03;;;23.89;33.15
67818;BME280;54614;47.576;7.524;2023-04-08T11:30:56;98960.69;;;23.90;33.12
67818;BME280;54614;47.576;7.524;2023-04-08T11:33:24;98951.41;;;23.92;33.18
67818;BME280;54614;47.576;7.524;2023-04-08T11:35:52;98952.88;;;23.95;32.97
67818;BME280;54614;47.576;7.524;2023-04-08T11:38:22;98947.91;;;23.92;32.80
67818;BME280;54614;47.576;7.524;2023-04-08T11:40:59;98954.72;;;23.94;33.05
67818;BME280;54614;47.576;7.524;2023-04-08T11:43:25;98946.88;;;23.93;33.39
67818;BME280;54614;47.576;7.524;2023-04-08T11:45:51;98948.28;;;23.89;33.28
67818;BME280;54614;47.576;7.524;2023-04-08T11:48:17;98939.84;;;23.92;33.37
67818;BME280;54614;47.576;7.524;2023-04-08T11:50:44;98945.41;;;23.90;33.23
67818;BME280;54614;47.576;7.524;2023-04-08T11:53:21;98944.63;;;23.96;33.48
67818;BME280;54614;47.576;7.524;2023-04-08T11:55:47;98935.09;;;23.94;33.64
67818;BME280;54614;47.576;7.524;2023-04-08T11:58:14;98933.03;;;23.96;33.49
67818;BME280;54614;47.576;7.524;2023-04-08T12:00:40;98935.34;;;23.99;33.28
67818;BME280;54614;47.576;7.524;2023-04-08T12:03:07;98931.81;;;23.98;33.02
67818;BME280;54614;47.576;7.524;2023-04-08T12:05:33;98935.97;;;24.01;33.21
67818;BME280;54614;47.576;7.524;2023-04-08T12:07:59;98930.16;;;23.97;33.01
67818;BME280;54614;47.576;7.524;2023-04-08T12:10:25;98935.72;;;23.96;33.15
67818;BME280;54614;47.576;7.524;2023-04-08T12:12:51;98927.03;;;23.94;33.29
67818;BME280;54614;47.576;7.524;2023-04-08T12:15:17;98931.38;;;23.95;33.26
67818;BME280;54614;47.576;7.524;2023-04-08T12:17:43;98933.88;;;23.96;33.54
67818;BME280;54614;47.576;7.524;2023-04-08T12:20:12;98936.34;;;23.98;33.23
67818;BME280;54614;47.576;7.524;2023-04-08T12:22:38;98939.69;;;24.00;33.35
67818;BME280;54614;47.576;7.524;2023-04-08T12:25:05;98941.53;;;23.99;33.43
67818;BME280;54614;47.576;7.524;2023-04-08T12:27:31;98936.78;;;24.01;33.20
67818;BME280;54614;47.576;7.524;2023-04-08T12:30:02;98930.97;;;23.98;33.27
67818;BME280;54614;47.576;7.524;2023-04-08T12:32:28;98937.19;;;23.98;33.14
67818;BME280;54614;47.576;7.524;2023-04-08T12:34:54;98938.22;;;23.97;33.43
67818;BME280;54614;47.576;7.524;2023-04-08T12:37:20;98938.00;;;23.99;33.21
67818;BME280;54614;47.576;7.524;2023-04-08T12:39:46;98942.34;;;24.00;33.27
67818;BME280;54614;47.576;7.524;2023-04-08T12:42:13;98936.16;;;23.99;33.35
67818;BME280;54614;47.576;7.524;2023-04-08T12:44:39;98934.50;;;23.98;33.28
67818;BME280;54614;47.576;7.524;2023-04-08T12:47:05;98931.81;;;23.98;33.18
67818;BME280;54614;47.576;7.524;2023-04-08T12:49:30;98932.00;;;23.97;33.57
67818;BME280;54614;47.576;7.524;2023-04-08T12:51:56;98931.38;;;23.95;33.31
67818;BME280;54614;47.576;7.524;2023-04-08T12:54:22;98922.94;;;23.98;33.30
67818;BME280;54614;47.576;7.524;2023-04-08T12:56:48;98927.25;;;23.99;32.95
67818;BME280;54614;47.576;7.524;2023-04-08T12:59:14;98930.16;;;23.97;32.88
67818;BME280;54614;47.576;7.524;2023-04-08T13:01:41;98930.16;;;23.97;33.22
67818;BME280;54614;47.576;7.524;2023-04-08T13:04:06;98927.47;;;23.97;33.16
67818;BME280;54614;47.576;7.524;2023-04-08T13:06:32;98928.09;;;23.99;33.08
67818;BME280;54614;47.576;7.524;2023-04-08T13:08:58;98928.94;;;24.00;33.31
67818;BME280;54614;47.576;7.524;2023-04-08T13:11:24;98927.06;;;24.00;33.49
67818;BME280;54614;47.576;7.524;2023-04-08T13:13:50;98920.88;;;24.00;33.14
67818;BME280;54614;47.576;7.524;2023-04-08T13:16:17;98918.59;;;24.03;33.50
67818;BME280;54614;47.576;7.524;2023-04-08T13:18:43;98916.75;;;24.04;33.27
67818;BME280;54614;47.576;7.524;2023-04-08T13:21:09;98924.19;;;24.02;33.15
67818;BME280;54614;47.576;7.524;2023-04-08T13:23:35;98921.28;;;24.03;33.25